Ellisburg, New Jersey
Current Conditions -  °F | °C
As of 2:54 PM on Saturday 20 Dec 2014 (Local Time) from KVAY Reporting Station
Overcast Overcast  
Wind Chill: 33°   Ceiling: 3200
Heat Index: 33°   Visibility: 10mi
Dew Point: 21°   Wind: 3mph
Humidity: 61%   Direction: NA
Pressure: 30.27"   Gusts: NA
Location:  39.9312°N, 75.0244°W
Report Text: KVAY 201954Z AUTO VRB03KT 10SM OVC032 01/M06 A3027 RMK AO2 SLP250 T00061061
Loading
Personal Weather Stations






























Interactive Weather Map New forecast layout! Learn more

10-Day Weather Forecast

Advertisements
Track Severe Weather on mobile